createdAt,value
2019-03-31T00:00:32.288Z,8.59
2019-03-31T00:03:05.171Z,8.36
2019-03-31T00:05:37.729Z,8.42
2019-03-31T00:08:10.927Z,8.30
2019-03-31T00:10:43.383Z,8.40
2019-03-31T00:13:15.549Z,8.43
2019-03-31T00:15:47.880Z,8.33
2019-03-31T00:18:20.097Z,8.35
2019-03-31T00:20:52.269Z,8.46
2019-03-31T00:23:24.541Z,8.31
2019-03-31T00:25:56.608Z,8.30
2019-03-31T00:28:28.826Z,8.15
2019-03-31T00:31:00.804Z,8.14
2019-03-31T00:33:32.939Z,8.27
2019-03-31T00:36:05.174Z,8.04
2019-03-31T00:38:37.316Z,8.17
2019-03-31T00:41:09.488Z,8.39
2019-03-31T00:43:41.700Z,8.28
2019-03-31T00:46:13.910Z,8.28
2019-03-31T00:48:46.123Z,8.01
2019-03-31T00:51:18.466Z,8.35
2019-03-31T00:53:50.234Z,8.27
2019-03-31T00:56:22.383Z,8.31
2019-03-31T00:58:54.432Z,8.07
2019-03-31T01:01:36.673Z,8.52
2019-03-31T01:04:08.313Z,8.37
2019-03-31T01:06:40.786Z,8.28
2019-03-31T01:09:32.393Z,8.21
2019-03-31T01:12:06.873Z,8.13
2019-03-31T01:14:39.014Z,8.19
2019-03-31T01:17:12.618Z,8.32
2019-03-31T01:19:45.047Z,8.06
2019-03-31T01:22:17.108Z,8.35
2019-03-31T01:24:49.385Z,8.10
2019-03-31T01:27:21.451Z,8.18
2019-03-31T01:29:53.725Z,8.07
2019-03-31T01:32:26.068Z,8.18
2019-03-31T01:34:58.368Z,8.34
2019-03-31T01:37:30.573Z,8.25
2019-03-31T01:40:03.215Z,8.38
2019-03-31T01:42:36.712Z,8.22
2019-03-31T01:45:10.855Z,8.22
2019-03-31T01:47:43.121Z,8.21
2019-03-31T01:50:17.272Z,8.14
2019-03-31T01:52:49.225Z,8.24
2019-03-31T01:55:21.367Z,7.95
2019-03-31T01:57:53.351Z,8.14
2019-03-31T02:00:33.447Z,8.16
2019-03-31T02:03:05.570Z,8.07
2019-03-31T02:05:37.674Z,8.01
2019-03-31T02:08:10.263Z,7.97
2019-03-31T02:10:42.093Z,7.88
2019-03-31T02:13:13.986Z,7.89
2019-03-31T02:15:46.073Z,7.88
2019-03-31T02:18:18.081Z,7.77
2019-03-31T02:20:49.919Z,7.70
2019-03-31T02:23:21.835Z,7.93
2019-03-31T02:25:53.660Z,7.84
2019-03-31T02:28:25.464Z,7.65
2019-03-31T02:30:57.525Z,7.64
2019-03-31T02:33:29.360Z,7.85
2019-03-31T02:36:01.414Z,7.84
2019-03-31T02:38:33.649Z,8.03
2019-03-31T02:41:05.910Z,7.57
2019-03-31T02:43:37.941Z,7.63
2019-03-31T02:46:09.963Z,7.63
2019-03-31T02:48:41.953Z,7.71
2019-03-31T02:51:14.395Z,7.66
2019-03-31T02:53:46.418Z,7.49
2019-03-31T02:56:21.195Z,7.52
2019-03-31T02:58:55.731Z,7.55
2019-03-31T03:01:28.995Z,7.77
2019-03-31T03:04:03.163Z,7.69
2019-03-31T03:06:37.291Z,7.65
2019-03-31T03:09:09.559Z,7.96
2019-03-31T03:11:42.970Z,7.65
2019-03-31T03:14:16.337Z,7.69
2019-03-31T03:16:48.279Z,7.55
2019-03-31T03:19:20.282Z,7.82
2019-03-31T03:21:52.494Z,7.82
2019-03-31T03:24:24.565Z,7.48
2019-03-31T03:26:56.493Z,7.72
2019-03-31T03:29:28.362Z,7.80
2019-03-31T03:32:00.416Z,7.70
2019-03-31T03:34:32.357Z,7.70
2019-03-31T03:37:04.632Z,7.50
2019-03-31T03:39:36.558Z,7.75
2019-03-31T03:42:08.769Z,7.42
2019-03-31T03:44:40.681Z,7.55
2019-03-31T03:47:12.705Z,7.36
2019-03-31T03:49:44.686Z,7.31
2019-03-31T03:52:16.703Z,7.55
2019-03-31T03:54:48.530Z,7.61
2019-03-31T03:57:21.414Z,7.33
2019-03-31T03:59:53.364Z,7.39
2019-03-31T04:02:25.269Z,7.09
2019-03-31T04:04:57.070Z,7.27
2019-03-31T04:07:28.908Z,7.38
2019-03-31T04:10:01.037Z,7.27
2019-03-31T04:12:33.052Z,7.34
2019-03-31T04:15:05.098Z,7.33
2019-03-31T04:17:37.112Z,7.48
2019-03-31T04:20:09.078Z,7.41
2019-03-31T04:22:40.906Z,7.32
2019-03-31T04:25:12.876Z,7.14
2019-03-31T04:27:44.684Z,7.23
2019-03-31T04:30:16.500Z,7.13
2019-03-31T04:32:48.632Z,7.42
2019-03-31T04:35:20.611Z,7.39
2019-03-31T04:37:52.635Z,7.20
2019-03-31T04:40:24.795Z,6.99
2019-03-31T04:42:56.912Z,7.16
2019-03-31T04:45:28.891Z,7.08
2019-03-31T04:48:00.819Z,7.13
2019-03-31T04:50:32.743Z,7.07
2019-03-31T04:53:04.853Z,7.26
2019-03-31T04:55:36.791Z,7.04
2019-03-31T04:58:08.591Z,7.05
2019-03-31T05:00:40.515Z,7.25
2019-03-31T05:03:12.400Z,7.16
2019-03-31T05:05:44.254Z,7.10
2019-03-31T05:08:16.077Z,7.38
2019-03-31T05:10:48.031Z,7.06
2019-03-31T05:13:19.967Z,7.08
2019-03-31T05:15:51.920Z,7.18
2019-03-31T05:18:23.751Z,7.51
2019-03-31T05:20:55.787Z,7.70
2019-03-31T05:23:27.775Z,7.57
2019-03-31T05:26:00.912Z,7.82
2019-03-31T05:28:33.044Z,7.83
2019-03-31T05:31:05.193Z,7.96
2019-03-31T05:33:37.012Z,7.93
2019-03-31T05:36:08.812Z,8.06
2019-03-31T05:38:40.773Z,8.08
2019-03-31T05:41:12.866Z,8.12
2019-03-31T05:43:44.949Z,8.45
2019-03-31T05:46:17.022Z,8.74
2019-03-31T05:48:48.972Z,8.95
2019-03-31T05:51:21.120Z,9.10
2019-03-31T05:53:53.104Z,9.26
2019-03-31T05:56:25.246Z,9.37
2019-03-31T05:58:57.315Z,9.44
2019-03-31T06:01:29.640Z,9.30
2019-03-31T06:04:01.625Z,9.52
2019-03-31T06:06:36.830Z,9.53
2019-03-31T06:09:08.715Z,9.72
2019-03-31T06:11:40.610Z,9.72
2019-03-31T06:14:12.671Z,9.89
2019-03-31T06:16:44.729Z,9.95
2019-03-31T06:19:16.933Z,9.98
2019-03-31T06:21:48.874Z,10.10
2019-03-31T06:24:20.935Z,10.16
2019-03-31T06:26:52.934Z,10.32
2019-03-31T06:29:24.961Z,10.44
2019-03-31T06:31:56.923Z,10.50
2019-03-31T06:34:28.804Z,10.62
2019-03-31T06:37:00.712Z,10.74
2019-03-31T06:39:34.343Z,10.79
2019-03-31T06:42:06.512Z,10.83
2019-03-31T06:44:38.398Z,10.83
2019-03-31T06:47:10.328Z,11.02
2019-03-31T06:49:42.192Z,10.96
2019-03-31T06:52:14.206Z,11.10
2019-03-31T06:54:46.205Z,11.16
2019-03-31T06:57:18.170Z,11.18
2019-03-31T06:59:50.360Z,11.35
2019-03-31T07:02:22.231Z,11.35
2019-03-31T07:05:00.792Z,11.57
2019-03-31T07:07:27.877Z,11.61
2019-03-31T07:09:59.886Z,11.81
2019-03-31T07:12:31.995Z,11.86
2019-03-31T07:15:05.786Z,11.90
2019-03-31T07:17:37.591Z,12.01
2019-03-31T07:20:11.605Z,12.18
2019-03-31T07:22:43.444Z,12.09
2019-03-31T07:25:16.047Z,12.15
2019-03-31T07:27:47.993Z,12.51
2019-03-31T07:30:20.981Z,12.71
2019-03-31T07:32:52.833Z,12.88
2019-03-31T07:35:24.803Z,13.11
2019-03-31T07:37:56.661Z,13.29
2019-03-31T07:40:28.665Z,13.48
2019-03-31T07:43:00.642Z,13.52
2019-03-31T07:45:32.550Z,13.72
2019-03-31T07:48:07.987Z,13.95
2019-03-31T07:50:38.131Z,14.05
2019-03-31T07:53:10.122Z,14.35
2019-03-31T07:55:41.945Z,14.66
2019-03-31T07:58:13.786Z,14.67
2019-03-31T08:00:45.707Z,14.67
2019-03-31T08:03:17.738Z,14.59
2019-03-31T08:05:49.587Z,14.94
2019-03-31T08:08:21.511Z,15.20
2019-03-31T08:10:53.497Z,15.32
2019-03-31T08:13:25.318Z,15.25
2019-03-31T08:15:57.240Z,15.32
2019-03-31T08:18:29.324Z,15.54
2019-03-31T08:21:01.613Z,15.42
2019-03-31T08:23:33.543Z,14.76
2019-03-31T08:26:05.627Z,15.23
2019-03-31T08:28:37.625Z,15.31
2019-03-31T08:31:09.603Z,15.31
2019-03-31T08:33:41.573Z,15.84
2019-03-31T08:36:13.410Z,15.84
2019-03-31T08:38:45.413Z,15.72
2019-03-31T08:41:17.399Z,15.99
2019-03-31T08:43:49.325Z,15.94
2019-03-31T08:46:21.198Z,16.14
2019-03-31T08:48:53.076Z,16.66
2019-03-31T08:51:25.024Z,16.27
2019-03-31T08:53:57.049Z,16.04
2019-03-31T08:56:28.893Z,16.68
2019-03-31T08:59:00.972Z,16.86
2019-03-31T09:01:32.968Z,16.83
2019-03-31T09:04:04.863Z,16.52
2019-03-31T09:06:36.703Z,16.39
2019-03-31T09:09:09.992Z,16.64
2019-03-31T09:11:42.076Z,16.84
2019-03-31T09:14:13.902Z,17.04
2019-03-31T09:16:45.930Z,16.96
2019-03-31T09:19:17.919Z,16.90
2019-03-31T09:21:49.808Z,16.84
2019-03-31T09:24:21.767Z,16.65
2019-03-31T09:26:53.626Z,17.14
2019-03-31T09:29:25.451Z,17.46
2019-03-31T09:31:57.335Z,17.68
2019-03-31T09:34:29.313Z,17.58
2019-03-31T09:37:01.467Z,17.32
2019-03-31T09:39:33.349Z,17.68
2019-03-31T09:42:05.333Z,17.85
2019-03-31T09:44:37.266Z,17.69
2019-03-31T09:47:09.308Z,17.87
2019-03-31T09:49:41.226Z,17.26
2019-03-31T09:52:13.060Z,17.56
2019-03-31T09:54:44.874Z,17.53
2019-03-31T09:57:16.733Z,17.34
2019-03-31T09:59:48.654Z,17.43
2019-03-31T10:02:20.558Z,17.71
2019-03-31T10:04:52.558Z,17.59
2019-03-31T10:07:24.723Z,18.04
2019-03-31T10:09:56.873Z,17.79
2019-03-31T10:12:28.867Z,17.70
2019-03-31T10:15:00.744Z,17.70
2019-03-31T10:17:32.670Z,17.87
2019-03-31T10:20:05.422Z,17.67
2019-03-31T10:22:37.561Z,17.60
2019-03-31T10:25:13.213Z,18.24
2019-03-31T10:27:44.561Z,18.39
2019-03-31T10:30:22.955Z,18.47
2019-03-31T10:32:54.803Z,17.94
2019-03-31T10:35:26.633Z,18.17
2019-03-31T10:37:59.747Z,18.14
2019-03-31T10:40:31.695Z,18.24
2019-03-31T10:43:03.776Z,17.91
2019-03-31T10:45:35.782Z,18.52
2019-03-31T10:48:19.759Z,18.05
2019-03-31T10:50:42.339Z,18.19
2019-03-31T10:53:14.473Z,17.82
2019-03-31T10:55:46.460Z,18.13
2019-03-31T10:58:18.607Z,17.85
2019-03-31T11:00:50.699Z,18.09
2019-03-31T11:03:22.875Z,17.73
2019-03-31T11:05:54.838Z,17.86
2019-03-31T11:08:26.871Z,18.16
2019-03-31T11:10:58.797Z,17.97
2019-03-31T11:13:30.663Z,17.77
2019-03-31T11:16:02.556Z,17.98
2019-03-31T11:18:34.737Z,18.11
2019-03-31T11:21:13.241Z,18.16
2019-03-31T11:23:45.433Z,18.22
2019-03-31T11:26:17.475Z,18.20
2019-03-31T11:28:49.456Z,18.47
2019-03-31T11:31:21.441Z,18.42
2019-03-31T11:33:53.273Z,18.12
2019-03-31T11:36:25.348Z,17.99
2019-03-31T11:38:57.344Z,17.80
2019-03-31T11:41:29.227Z,18.36
2019-03-31T11:44:01.232Z,18.09
2019-03-31T11:46:33.097Z,18.33
2019-03-31T11:49:05.361Z,18.33
2019-03-31T11:51:37.392Z,18.61
2019-03-31T11:54:09.502Z,18.79
2019-03-31T11:56:42.376Z,18.47
2019-03-31T11:59:14.326Z,18.40
2019-03-31T12:01:46.249Z,18.48
2019-03-31T12:04:18.364Z,18.32
2019-03-31T12:06:50.365Z,18.51
2019-03-31T12:09:22.400Z,18.14
2019-03-31T12:11:54.496Z,18.22
2019-03-31T12:14:26.401Z,18.43
2019-03-31T12:16:58.416Z,18.18
2019-03-31T12:19:30.349Z,18.14
2019-03-31T12:22:02.381Z,18.13
2019-03-31T12:24:34.582Z,18.40
2019-03-31T12:27:06.564Z,18.29
2019-03-31T12:29:38.446Z,18.43
2019-03-31T12:32:10.268Z,18.02
2019-03-31T12:34:42.339Z,18.13
2019-03-31T12:37:14.524Z,18.14
2019-03-31T12:39:46.750Z,18.33
2019-03-31T12:42:18.727Z,18.40
2019-03-31T12:44:51.007Z,18.48
2019-03-31T12:47:22.939Z,18.89
2019-03-31T12:49:54.933Z,18.82
2019-03-31T12:52:26.972Z,18.98
2019-03-31T12:55:00.344Z,18.71
2019-03-31T12:57:32.250Z,18.58
2019-03-31T13:00:04.714Z,19.08
2019-03-31T13:02:36.697Z,19.01
2019-03-31T13:05:08.819Z,18.97
2019-03-31T13:07:40.805Z,19.25
2019-03-31T13:10:15.793Z,18.61
2019-03-31T13:12:47.912Z,18.49
2019-03-31T13:15:19.870Z,18.35
2019-03-31T13:17:52.066Z,18.60
2019-03-31T13:20:24.091Z,18.75
2019-03-31T13:22:56.283Z,18.67
2019-03-31T13:25:28.344Z,19.02
2019-03-31T13:28:00.311Z,18.94
2019-03-31T13:30:32.288Z,18.89
2019-03-31T13:33:05.379Z,19.17
2019-03-31T13:35:37.493Z,18.86
2019-03-31T13:38:11.348Z,18.55
2019-03-31T13:40:43.158Z,18.88
2019-03-31T13:43:15.136Z,19.08
2019-03-31T13:45:47.321Z,18.68
2019-03-31T13:48:19.177Z,19.05
2019-03-31T13:50:51.159Z,18.58
2019-03-31T13:53:23.008Z,18.65
2019-03-31T13:55:55.019Z,18.66
2019-03-31T13:58:28.603Z,18.42
2019-03-31T14:01:00.990Z,18.50
2019-03-31T14:03:33.013Z,18.26
2019-03-31T14:06:05.182Z,18.38
2019-03-31T14:08:37.253Z,18.52
2019-03-31T14:11:09.428Z,18.83
2019-03-31T14:13:42.441Z,18.72
2019-03-31T14:16:14.297Z,18.68
2019-03-31T14:18:46.155Z,18.93
2019-03-31T14:21:18.099Z,18.47
2019-03-31T14:23:49.949Z,18.45
2019-03-31T14:26:22.020Z,18.37
2019-03-31T14:28:53.937Z,18.60
2019-03-31T14:31:25.950Z,18.75
2019-03-31T14:33:57.927Z,18.69
2019-03-31T14:36:30.103Z,18.75
2019-03-31T14:39:02.349Z,18.83
2019-03-31T14:41:34.442Z,18.62
2019-03-31T14:44:06.771Z,18.46
2019-03-31T14:46:38.971Z,18.50
2019-03-31T14:49:10.809Z,18.17
2019-03-31T14:51:42.725Z,18.44
2019-03-31T14:54:14.532Z,18.58
2019-03-31T14:56:46.471Z,18.57
2019-03-31T14:59:18.575Z,18.66
2019-03-31T15:01:50.511Z,18.30
2019-03-31T15:04:22.463Z,18.03
2019-03-31T15:06:54.375Z,18.04
2019-03-31T15:09:26.219Z,18.07
2019-03-31T15:11:58.402Z,17.89
2019-03-31T15:14:30.309Z,17.95
2019-03-31T15:17:02.192Z,18.07
2019-03-31T15:19:34.332Z,17.93
2019-03-31T15:22:06.260Z,18.00
2019-03-31T15:24:38.182Z,18.33
2019-03-31T15:27:10.220Z,18.47
2019-03-31T15:29:42.063Z,18.63
2019-03-31T15:32:14.091Z,18.32
2019-03-31T15:34:45.928Z,18.39
2019-03-31T15:37:17.850Z,18.38
2019-03-31T15:39:49.866Z,18.11
2019-03-31T15:42:21.957Z,17.93
2019-03-31T15:44:53.921Z,18.06
2019-03-31T15:47:25.733Z,18.00
2019-03-31T15:49:57.560Z,18.06
2019-03-31T15:52:29.403Z,17.98
2019-03-31T15:55:01.323Z,17.93
2019-03-31T15:57:34.511Z,17.91
2019-03-31T16:00:08.444Z,17.78
2019-03-31T16:02:40.786Z,18.09
2019-03-31T16:05:13.215Z,17.90
2019-03-31T16:07:47.513Z,17.74
2019-03-31T16:10:18.923Z,18.33
2019-03-31T16:12:50.606Z,17.88
2019-03-31T16:15:21.932Z,17.84
2019-03-31T16:17:53.300Z,17.70
2019-03-31T16:20:24.633Z,17.57
2019-03-31T16:22:56.089Z,17.64
2019-03-31T16:25:30.650Z,17.55
2019-03-31T16:28:21.153Z,17.60
2019-03-31T16:30:52.558Z,17.34
2019-03-31T16:33:24.045Z,17.59
2019-03-31T16:35:55.378Z,17.51
2019-03-31T16:38:26.811Z,17.56
2019-03-31T16:40:58.374Z,17.37
2019-03-31T16:43:30.034Z,17.22
2019-03-31T16:46:01.248Z,17.27
2019-03-31T16:48:32.751Z,17.45
2019-03-31T16:51:04.437Z,17.09
2019-03-31T16:53:36.731Z,17.13
2019-03-31T16:56:07.998Z,16.81
2019-03-31T16:58:39.329Z,16.88
2019-03-31T17:01:10.692Z,17.02
2019-03-31T17:03:42.312Z,16.75
2019-03-31T17:06:13.599Z,16.69
2019-03-31T17:08:44.934Z,16.72
2019-03-31T17:11:17.257Z,16.84
2019-03-31T17:13:48.662Z,16.94
2019-03-31T17:16:20.023Z,16.70
2019-03-31T17:18:51.281Z,16.80
2019-03-31T17:21:22.883Z,16.64
2019-03-31T17:23:55.150Z,16.83
2019-03-31T17:26:26.716Z,16.71
2019-03-31T17:28:58.084Z,16.71
2019-03-31T17:31:29.367Z,16.67
2019-03-31T17:34:01.403Z,16.48
2019-03-31T17:36:32.885Z,16.28
2019-03-31T17:39:05.707Z,16.57
2019-03-31T17:41:37.878Z,16.41
2019-03-31T17:44:09.447Z,16.40
2019-03-31T17:46:40.705Z,16.38
2019-03-31T17:49:12.093Z,16.48
2019-03-31T17:51:43.386Z,16.43
2019-03-31T17:54:14.749Z,16.33
2019-03-31T17:56:46.086Z,16.32
2019-03-31T17:59:17.256Z,16.32
2019-03-31T18:01:48.401Z,16.13
2019-03-31T18:04:19.594Z,16.11
2019-03-31T18:06:50.766Z,16.16
2019-03-31T18:09:22.864Z,16.12
2019-03-31T18:11:53.971Z,16.08
2019-03-31T18:14:25.074Z,16.07
2019-03-31T18:16:56.250Z,15.83
2019-03-31T18:19:27.275Z,15.93
2019-03-31T18:21:58.291Z,15.83
2019-03-31T18:24:29.483Z,15.80
2019-03-31T18:27:00.525Z,15.83
2019-03-31T18:29:31.764Z,15.58
2019-03-31T18:32:02.950Z,15.69
2019-03-31T18:34:34.068Z,15.64
2019-03-31T18:37:05.219Z,15.54
2019-03-31T18:39:36.345Z,15.47
2019-03-31T18:42:07.367Z,15.42
2019-03-31T18:44:38.474Z,15.36
2019-03-31T18:47:09.501Z,15.28
2019-03-31T18:49:40.600Z,15.24
2019-03-31T18:52:11.682Z,15.12
2019-03-31T18:55:04.675Z,15.08
2019-03-31T18:57:57.373Z,14.96
2019-03-31T19:00:39.649Z,14.99
2019-03-31T19:03:20.047Z,14.80
2019-03-31T19:06:18.247Z,14.81
2019-03-31T19:09:19.137Z,14.76
2019-03-31T19:12:07.990Z,14.66
2019-03-31T19:15:07.827Z,14.37
2019-03-31T19:18:07.715Z,14.40
2019-03-31T19:21:11.491Z,14.40
2019-03-31T19:23:43.309Z,14.38
2019-03-31T19:26:29.505Z,14.30
2019-03-31T19:29:17.253Z,14.34
2019-03-31T19:32:06.035Z,13.95
2019-03-31T19:34:56.079Z,14.12
2019-03-31T19:37:52.754Z,14.01
2019-03-31T19:41:04.559Z,14.07
2019-03-31T19:43:43.508Z,13.92
2019-03-31T19:46:33.563Z,13.90
2019-03-31T19:49:16.586Z,13.91
2019-03-31T19:52:21.724Z,13.89
2019-03-31T19:55:23.989Z,13.70
2019-03-31T19:58:13.754Z,13.74
2019-03-31T20:01:12.993Z,13.65
2019-03-31T20:04:02.139Z,13.66
2019-03-31T20:07:04.323Z,13.47
2019-03-31T20:09:44.253Z,13.51
2019-03-31T20:12:33.301Z,13.39
2019-03-31T20:15:22.586Z,13.37
2019-03-31T20:18:12.890Z,13.35
2019-03-31T20:20:54.133Z,13.33
2019-03-31T20:23:41.473Z,13.06
2019-03-31T20:26:44.020Z,13.07
2019-03-31T20:29:27.073Z,13.16
2019-03-31T20:32:23.377Z,13.14
2019-03-31T20:35:13.906Z,13.06
2019-03-31T20:37:59.387Z,13.02
2019-03-31T20:40:38.269Z,13.01
2019-03-31T20:43:23.701Z,12.97
2019-03-31T20:45:54.837Z,12.95
2019-03-31T20:48:25.963Z,12.92
2019-03-31T20:50:58.330Z,12.93
2019-03-31T20:53:29.471Z,12.80
2019-03-31T20:56:00.572Z,12.81
2019-03-31T20:58:31.879Z,12.81
2019-03-31T21:01:03.469Z,12.74
2019-03-31T21:03:34.867Z,12.59
2019-03-31T21:06:06.444Z,12.71
2019-03-31T21:08:37.714Z,12.59
2019-03-31T21:11:08.825Z,12.51
2019-03-31T21:13:39.941Z,12.44
2019-03-31T21:16:11.540Z,12.33
2019-03-31T21:18:42.755Z,12.38
2019-03-31T21:21:14.049Z,12.34
2019-03-31T21:23:45.281Z,12.35
2019-03-31T21:26:16.632Z,12.25
2019-03-31T21:28:47.955Z,12.19
2019-03-31T21:31:19.050Z,11.16
2019-03-31T21:33:50.177Z,11.39
2019-03-31T21:36:21.218Z,11.75
2019-03-31T21:38:52.304Z,11.62
2019-03-31T21:41:23.481Z,11.70
2019-03-31T21:43:54.541Z,11.45
2019-03-31T21:46:25.594Z,11.12
2019-03-31T21:48:56.810Z,11.34
2019-03-31T21:51:27.878Z,11.54
2019-03-31T21:53:58.994Z,11.48
2019-03-31T21:56:30.346Z,11.25
2019-03-31T21:59:01.617Z,11.36
2019-03-31T22:01:33.940Z,11.41
2019-03-31T22:04:05.100Z,11.38
2019-03-31T22:06:36.258Z,11.48
2019-03-31T22:09:10.911Z,11.40
2019-03-31T22:11:42.232Z,11.51
2019-03-31T22:14:13.393Z,11.54
2019-03-31T22:16:44.506Z,11.40
2019-03-31T22:19:16.459Z,11.53
2019-03-31T22:21:47.710Z,11.41
2019-03-31T22:24:18.776Z,11.23
2019-03-31T22:26:49.975Z,11.31
2019-03-31T22:29:21.052Z,11.21
2019-03-31T22:31:53.135Z,11.43
2019-03-31T22:34:24.333Z,11.50
2019-03-31T22:36:55.428Z,11.52
2019-03-31T22:39:26.473Z,11.69
2019-03-31T22:41:57.604Z,11.71
2019-03-31T22:44:28.696Z,11.69
2019-03-31T22:46:59.832Z,11.66
2019-03-31T22:49:31.016Z,11.66
2019-03-31T22:52:02.136Z,11.77
2019-03-31T22:54:33.186Z,11.81
2019-03-31T22:57:04.272Z,11.54
2019-03-31T22:59:35.370Z,11.58
2019-03-31T23:02:06.630Z,11.70
2019-03-31T23:04:37.634Z,11.79
2019-03-31T23:07:08.673Z,11.82
2019-03-31T23:09:39.766Z,11.80
2019-03-31T23:12:10.895Z,11.70
2019-03-31T23:14:41.940Z,11.68
2019-03-31T23:17:13.094Z,11.71
2019-03-31T23:19:44.264Z,11.72
2019-03-31T23:22:15.454Z,11.63
2019-03-31T23:24:47.631Z,11.63
2019-03-31T23:27:18.815Z,11.60
2019-03-31T23:29:49.911Z,11.61
2019-03-31T23:32:21.044Z,11.67
2019-03-31T23:34:52.206Z,11.63
2019-03-31T23:37:23.234Z,11.24
2019-03-31T23:39:54.222Z,11.47
2019-03-31T23:42:25.279Z,11.42
2019-03-31T23:44:56.327Z,11.34
2019-03-31T23:47:27.520Z,11.16
2019-03-31T23:49:58.570Z,11.35
2019-03-31T23:52:29.608Z,11.30
2019-03-31T23:55:00.728Z,11.34
2019-03-31T23:57:41.314Z,11.37
